Time;durP1;ratioP1;P1;durP2;ratioP2;P2;SDS_P1;SDS_P2;PMS_P1;PMS_P2;Temp;Humidity;BMP_temperature;BMP_pressure;BME280_temperature;BME280_humidity;BME280_pressure;Samples;Min_cycle;Max_cycle;Signal;HPM_P1;HPM_P2
2023/09/02 00:02:25;;;;;;;6.70;4.68;;;;;;;;;;5054833;28;20028;-62
2023/09/02 00:04:51;;;;;;;10.23;4.80;;;;;;;;;;5055369;28;20119;-62
2023/09/02 00:07:17;;;;;;;8.00;4.72;;;;;;;;;;5055523;28;20151;-62
2023/09/02 00:09:43;;;;;;;8.02;4.68;;;;;;;;;;5055377;28;20161;-62
2023/09/02 00:12:09;;;;;;;10.88;4.40;;;;;;;;;;5054418;28;20032;-62
2023/09/02 00:14:35;;;;;;;6.88;4.68;;;;;;;;;;5055494;28;20174;-62
2023/09/02 00:17:01;;;;;;;9.13;4.80;;;;;;;;;;5053523;28;21814;-62
2023/09/02 00:19:27;;;;;;;8.48;4.10;;;;;;;;;;5055817;28;20033;-62
2023/09/02 00:21:53;;;;;;;8.57;4.32;;;;;;;;;;5056350;28;20386;-62
2023/09/02 00:24:19;;;;;;;7.75;4.13;;;;;;;;;;5055549;28;20727;-62
2023/09/02 00:26:45;;;;;;;6.93;4.00;;;;;;;;;;5055378;28;20032;-62
2023/09/02 00:29:11;;;;;;;7.40;4.47;;;;;;;;;;5053301;28;20028;-62
2023/09/02 00:31:38;;;;;;;6.28;4.15;;;;;;;;;;5053517;28;20044;-62
2023/09/02 00:34:04;;;;;;;11.20;4.65;;;;;;;;;;5053904;28;20109;-62
2023/09/02 00:36:32;;;;;;;8.55;4.35;;;;;;;;;;5050634;28;20028;-62
2023/09/02 00:38:59;;;;;;;9.15;4.35;;;;;;;;;;5054033;28;20499;-62
2023/09/02 00:41:32;;;;;;;7.97;3.90;;;;;;;;;;5055647;28;21043;-62
2023/09/02 00:43:59;;;;;;;6.65;4.28;;;;;;;;;;5054118;28;20031;-62
2023/09/02 00:46:25;;;;;;;8.18;4.28;;;;;;;;;;5055155;28;20032;-62
2023/09/02 00:48:51;;;;;;;8.63;3.72;;;;;;;;;;5054023;28;20039;-62
2023/09/02 00:51:17;;;;;;;8.50;3.65;;;;;;;;;;5054861;28;20114;-62
2023/09/02 00:53:47;;;;;;;7.68;4.25;;;;;;;;;;5054243;28;20040;-62
2023/09/02 00:56:14;;;;;;;7.75;4.35;;;;;;;;;;5054791;28;20030;-62
2023/09/02 00:58:40;;;;;;;7.95;4.38;;;;;;;;;;5071435;28;20132;-62
2023/09/02 01:01:07;;;;;;;7.53;3.95;;;;;;;;;;5054183;28;20041;-62
2023/09/02 01:03:35;;;;;;;7.95;3.92;;;;;;;;;;5054015;28;20107;-62
2023/09/02 01:06:05;;;;;;;7.13;4.00;;;;;;;;;;5055267;28;20024;-62
2023/09/02 01:08:31;;;;;;;6.65;4.10;;;;;;;;;;5053981;28;20028;-62
2023/09/02 01:11:00;;;;;;;7.15;3.50;;;;;;;;;;5053992;28;20033;-62
2023/09/02 01:13:27;;;;;;;7.80;3.72;;;;;;;;;;5054802;28;20410;-62
2023/09/02 01:15:54;;;;;;;6.03;3.72;;;;;;;;;;5050749;28;20053;-62
2023/09/02 01:18:21;;;;;;;8.57;4.28;;;;;;;;;;5054361;28;20070;-62
2023/09/02 01:20:57;;;;;;;8.30;4.13;;;;;;;;;;5054618;28;20032;-62
2023/09/02 01:23:41;;;;;;;6.45;3.83;;;;;;;;;;5053505;28;20920;-62
2023/09/02 01:26:10;;;;;;;5.28;3.58;;;;;;;;;;5054195;28;20123;-62
2023/09/02 01:28:40;;;;;;;6.93;4.10;;;;;;;;;;5055042;28;20039;-62
2023/09/02 01:31:08;;;;;;;7.80;3.95;;;;;;;;;;5053640;28;20040;-62
2023/09/02 01:33:36;;;;;;;7.40;4.85;;;;;;;;;;5053954;28;20078;-62
2023/09/02 01:36:02;;;;;;;6.18;4.10;;;;;;;;;;5054386;28;20032;-62
2023/09/02 01:38:29;;;;;;;6.78;4.05;;;;;;;;;;5053781;28;20115;-62
2023/09/02 01:40:57;;;;;;;7.22;4.30;;;;;;;;;;5054722;28;20500;-62
2023/09/02 01:43:24;;;;;;;7.10;4.10;;;;;;;;;;5053699;28;20158;-62
2023/09/02 01:45:51;;;;;;;8.98;4.38;;;;;;;;;;5054549;28;20020;-62
2023/09/02 01:48:17;;;;;;;8.07;4.70;;;;;;;;;;5054397;28;20048;-62
2023/09/02 01:50:44;;;;;;;6.75;4.72;;;;;;;;;;5054635;28;20039;-62
2023/09/02 01:53:10;;;;;;;6.90;4.47;;;;;;;;;;5053849;28;20747;-62
2023/09/02 01:55:37;;;;;;;8.82;5.75;;;;;;;;;;5053222;28;20132;-62
2023/09/02 01:58:03;;;;;;;8.20;4.95;;;;;;;;;;5054355;28;20032;-62
2023/09/02 02:00:29;;;;;;;7.90;4.85;;;;;;;;;;5054156;28;20032;-62
2023/09/02 02:02:55;;;;;;;8.38;5.07;;;;;;;;;;5053228;28;20032;-62
2023/09/02 02:05:38;;;;;;;8.27;4.90;;;;;;;;;;5054614;28;20032;-62
2023/09/02 02:08:09;;;;;;;8.60;5.55;;;;;;;;;;5054343;28;20151;-62
2023/09/02 02:10:36;;;;;;;10.07;5.95;;;;;;;;;;5057513;28;20073;-62
2023/09/02 02:13:02;;;;;;;7.50;4.75;;;;;;;;;;5056464;28;20036;-62
2023/09/02 02:15:29;;;;;;;8.25;5.43;;;;;;;;;;5057402;28;20120;-62
2023/09/02 02:17:57;;;;;;;8.43;5.78;;;;;;;;;;5057034;28;20024;-62
2023/09/02 02:20:26;;;;;;;9.23;5.50;;;;;;;;;;5058500;28;20138;-62
2023/09/02 02:22:52;;;;;;;9.30;5.75;;;;;;;;;;5058031;28;20059;-62
2023/09/02 02:25:18;;;;;;;11.45;5.97;;;;;;;;;;5058252;28;20040;-62
2023/09/02 02:27:44;;;;;;;6.78;4.90;;;;;;;;;;5058871;28;20031;-62
2023/09/02 02:30:11;;;;;;;7.45;5.15;;;;;;;;;;5057569;28;20134;-63
2023/09/02 02:32:37;;;;;;;8.07;5.35;;;;;;;;;;5047916;28;20543;-62
2023/09/02 02:35:03;;;;;;;9.15;5.22;;;;;;;;;;5049642;28;21960;-62
2023/09/02 02:37:29;;;;;;;7.72;5.05;;;;;;;;;;5056223;28;20111;-62
2023/09/02 02:39:55;;;;;;;7.18;5.10;;;;;;;;;;5055865;28;20143;-62
2023/09/02 02:42:22;;;;;;;8.52;5.07;;;;;;;;;;5055777;28;20024;-67
2023/09/02 02:44:48;;;;;;;7.22;4.95;;;;;;;;;;5055238;28;20044;-68
2023/09/02 02:47:14;;;;;;;8.77;5.03;;;;;;;;;;5057346;28;20036;-68
2023/09/02 02:49:43;;;;;;;7.53;5.40;;;;;;;;;;5056669;28;20028;-68
2023/09/02 02:52:09;;;;;;;8.57;5.78;;;;;;;;;;5058377;28;20066;-68
2023/09/02 02:54:38;;;;;;;8.63;5.72;;;;;;;;;;5057658;28;20067;-67
2023/09/02 02:57:04;;;;;;;8.65;5.50;;;;;;;;;;5055747;28;20035;-68
2023/09/02 02:59:30;;;;;;;9.40;5.50;;;;;;;;;;5055610;28;20024;-67
2023/09/02 03:01:56;;;;;;;8.73;6.03;;;;;;;;;;5056931;28;20050;-67
2023/09/02 03:04:22;;;;;;;9.10;5.63;;;;;;;;;;5056098;28;20115;-67
2023/09/02 03:06:48;;;;;;;8.27;5.10;;;;;;;;;;5056709;28;20036;-67
2023/09/02 03:09:14;;;;;;;10.13;5.53;;;;;;;;;;5056462;28;20051;-67
2023/09/02 03:11:40;;;;;;;7.95;5.30;;;;;;;;;;5055908;28;20036;-68
2023/09/02 03:14:06;;;;;;;8.43;6.18;;;;;;;;;;5057313;28;20039;-68
2023/09/02 03:16:32;;;;;;;9.82;5.90;;;;;;;;;;5057066;28;21946;-67
2023/09/02 03:18:59;;;;;;;10.63;6.45;;;;;;;;;;5055079;28;20118;-68
2023/09/02 03:21:25;;;;;;;7.45;5.20;;;;;;;;;;5056261;28;20033;-68
2023/09/02 03:23:51;;;;;;;7.95;5.85;;;;;;;;;;5056511;28;20094;-67
2023/09/02 03:26:22;;;;;;;7.38;5.60;;;;;;;;;;5056157;28;20562;-68
2023/09/02 03:28:48;;;;;;;9.05;5.57;;;;;;;;;;5056113;28;20024;-68
2023/09/02 03:31:14;;;;;;;7.18;5.13;;;;;;;;;;5056446;28;20355;-67
2023/09/02 03:33:40;;;;;;;7.63;5.25;;;;;;;;;;5057434;28;20032;-67
2023/09/02 03:36:06;;;;;;;9.68;6.30;;;;;;;;;;5055925;28;20042;-67
2023/09/02 03:38:32;;;;;;;10.05;6.15;;;;;;;;;;5056392;28;20994;-67
2023/09/02 03:40:59;;;;;;;8.00;5.78;;;;;;;;;;5056429;28;20032;-67
2023/09/02 03:43:25;;;;;;;9.00;6.03;;;;;;;;;;5056615;28;20039;-67
2023/09/02 03:45:51;;;;;;;7.15;5.20;;;;;;;;;;5056988;28;20773;-68
2023/09/02 03:48:20;;;;;;;8.15;5.55;;;;;;;;;;5056758;28;20037;-67
2023/09/02 03:51:05;;;;;;;7.93;5.65;;;;;;;;;;5056275;28;20942;-68
2023/09/02 03:53:34;;;;;;;9.75;5.82;;;;;;;;;;5056021;28;20043;-67
2023/09/02 03:56:00;;;;;;;8.65;5.90;;;;;;;;;;5056694;28;20043;-67
2023/09/02 03:58:28;;;;;;;7.05;4.28;;;;;;;;;;5054271;28;20586;-67
2023/09/02 04:00:54;;;;;;;6.80;3.90;;;;;;;;;;5054666;28;20032;-67
2023/09/02 04:03:21;;;;;;;6.68;4.32;;;;;;;;;;5055540;28;20425;-67
2023/09/02 04:05:47;;;;;;;8.50;4.53;;;;;;;;;;5054844;28;20024;-67
2023/09/02 04:08:16;;;;;;;7.82;5.20;;;;;;;;;;5055693;28;20115;-67
2023/09/02 04:10:42;;;;;;;7.88;5.45;;;;;;;;;;5055505;28;21755;-67
2023/09/02 04:13:08;;;;;;;10.07;5.88;;;;;;;;;;5056195;28;20538;-67
2023/09/02 04:15:34;;;;;;;10.05;6.22;;;;;;;;;;5056445;28;20063;-68
2023/09/02 04:18:00;;;;;;;11.27;6.15;;;;;;;;;;5055725;28;20031;-68
2023/09/02 04:20:26;;;;;;;9.68;6.43;;;;;;;;;;5056570;28;20024;-68
2023/09/02 04:22:52;;;;;;;8.45;6.10;;;;;;;;;;5054906;28;20035;-67
2023/09/02 04:25:19;;;;;;;10.07;5.90;;;;;;;;;;5055861;28;20063;-68
2023/09/02 04:27:46;;;;;;;10.65;5.82;;;;;;;;;;5055773;28;20028;-67
2023/09/02 04:30:12;;;;;;;7.90;5.30;;;;;;;;;;5055342;28;20207;-68
2023/09/02 04:32:38;;;;;;;7.95;5.18;;;;;;;;;;5056087;28;20085;-68
2023/09/02 04:35:05;;;;;;;7.97;5.63;;;;;;;;;;5055359;28;20032;-68
2023/09/02 04:37:31;;;;;;;9.40;5.95;;;;;;;;;;5052878;28;20040;-67
2023/09/02 04:39:57;;;;;;;9.70;6.30;;;;;;;;;;5053019;28;20808;-67
2023/09/02 04:42:23;;;;;;;8.77;6.18;;;;;;;;;;5055069;28;20039;-67
2023/09/02 04:44:50;;;;;;;10.88;6.05;;;;;;;;;;5053042;28;20891;-68
2023/09/02 04:47:16;;;;;;;10.95;6.55;;;;;;;;;;5053876;28;20021;-68
2023/09/02 04:49:42;;;;;;;10.65;6.82;;;;;;;;;;5054978;28;20135;-68
2023/09/02 04:52:08;;;;;;;9.25;6.47;;;;;;;;;;5056526;28;20879;-67
2023/09/02 04:54:34;;;;;;;10.15;7.22;;;;;;;;;;5055660;28;20032;-68
2023/09/02 04:57:00;;;;;;;10.40;7.18;;;;;;;;;;5055314;28;20021;-68
2023/09/02 04:59:26;;;;;;;10.73;7.00;;;;;;;;;;5055487;28;20044;-67
2023/09/02 05:01:52;;;;;;;11.57;6.88;;;;;;;;;;5055419;28;20067;-68
2023/09/02 05:04:18;;;;;;;7.57;5.70;;;;;;;;;;5055481;28;20103;-67
2023/09/02 05:06:45;;;;;;;8.82;6.03;;;;;;;;;;5053563;28;20115;-67
2023/09/02 05:09:11;;;;;;;9.68;6.18;;;;;;;;;;5053665;28;20059;-67
2023/09/02 05:11:37;;;;;;;10.02;6.95;;;;;;;;;;5056058;28;20043;-67
2023/09/02 05:14:03;;;;;;;9.30;6.60;;;;;;;;;;5055768;28;20040;-68
2023/09/02 05:16:29;;;;;;;9.77;6.35;;;;;;;;;;5055097;28;20070;-67
2023/09/02 05:18:55;;;;;;;7.53;5.28;;;;;;;;;;5054919;28;20024;-68
2023/09/02 05:21:21;;;;;;;9.05;6.20;;;;;;;;;;5054790;28;20039;-68
2023/09/02 05:23:47;;;;;;;8.57;5.88;;;;;;;;;;5055621;28;21092;-68
2023/09/02 05:26:13;;;;;;;9.18;6.07;;;;;;;;;;5056061;28;20059;-67
2023/09/02 05:28:39;;;;;;;18.85;7.18;;;;;;;;;;5055176;28;20036;-67
2023/09/02 05:31:05;;;;;;;9.95;6.55;;;;;;;;;;5054997;28;20035;-67
2023/09/02 05:33:31;;;;;;;8.05;5.30;;;;;;;;;;5055499;28;20036;-68
2023/09/02 05:35:58;;;;;;;8.90;5.88;;;;;;;;;;5054608;28;20109;-67
2023/09/02 05:38:24;;;;;;;10.00;5.68;;;;;;;;;;5053579;28;20071;-67
2023/09/02 05:40:50;;;;;;;8.93;5.97;;;;;;;;;;5054917;28;20032;-68
2023/09/02 05:43:17;;;;;;;11.30;7.70;;;;;;;;;;5054624;28;20060;-67
2023/09/02 05:45:43;;;;;;;11.90;7.43;;;;;;;;;;5055446;28;20040;-69
2023/09/02 05:48:09;;;;;;;8.70;6.15;;;;;;;;;;5054949;28;20070;-68
2023/09/02 05:50:35;;;;;;;10.73;7.32;;;;;;;;;;5054606;28;20044;-68
2023/09/02 05:53:01;;;;;;;10.63;6.60;;;;;;;;;;5054662;28;20858;-68
2023/09/02 05:55:27;;;;;;;9.85;6.75;;;;;;;;;;5054940;28;20047;-67
2023/09/02 05:57:53;;;;;;;10.93;6.78;;;;;;;;;;5054464;28;20513;-67
2023/09/02 06:00:19;;;;;;;9.32;7.18;;;;;;;;;;5054902;28;20051;-68
2023/09/02 06:02:45;;;;;;;9.25;6.75;;;;;;;;;;5055138;28;20029;-67
2023/09/02 06:05:12;;;;;;;8.27;6.43;;;;;;;;;;5053070;28;21874;-67
2023/09/02 06:07:38;;;;;;;9.77;7.15;;;;;;;;;;5053605;28;21061;-68
2023/09/02 06:10:04;;;;;;;9.73;7.13;;;;;;;;;;5054152;28;20584;-67
2023/09/02 06:12:30;;;;;;;10.93;7.07;;;;;;;;;;5053882;28;20050;-68
2023/09/02 06:14:56;;;;;;;10.20;7.28;;;;;;;;;;5055102;28;20132;-68
2023/09/02 06:17:22;;;;;;;8.77;6.93;;;;;;;;;;5054180;28;20747;-68
2023/09/02 06:19:48;;;;;;;13.77;7.60;;;;;;;;;;5054722;28;20031;-62
2023/09/02 06:22:15;;;;;;;9.52;6.90;;;;;;;;;;5054800;28;20094;-62
2023/09/02 06:24:41;;;;;;;11.77;7.97;;;;;;;;;;5054453;28;21070;-68
2023/09/02 06:27:07;;;;;;;11.82;7.40;;;;;;;;;;5054329;28;21174;-67
2023/09/02 06:29:33;;;;;;;10.48;7.00;;;;;;;;;;5053969;28;20612;-68
2023/09/02 06:31:59;;;;;;;8.77;6.10;;;;;;;;;;5054147;28;20085;-67
2023/09/02 06:34:25;;;;;;;9.55;7.30;;;;;;;;;;5049765;28;20552;-68
2023/09/02 06:36:51;;;;;;;9.18;7.22;;;;;;;;;;5044519;28;21735;-68
2023/09/02 06:39:17;;;;;;;8.30;6.45;;;;;;;;;;5045961;28;20036;-68
2023/09/02 06:41:43;;;;;;;13.63;9.30;;;;;;;;;;5045697;28;20403;-67
2023/09/02 06:44:09;;;;;;;10.45;7.65;;;;;;;;;;5044428;28;20028;-68
2023/09/02 06:46:37;;;;;;;13.25;8.60;;;;;;;;;;5045908;28;20025;-68
2023/09/02 06:49:05;;;;;;;13.20;9.00;;;;;;;;;;5042512;28;20066;-68
2023/09/02 06:51:31;;;;;;;13.20;9.32;;;;;;;;;;5044027;28;20134;-68
2023/09/02 06:53:57;;;;;;;21.50;9.60;;;;;;;;;;5046447;28;20653;-67
2023/09/02 06:56:23;;;;;;;12.63;9.23;;;;;;;;;;5049175;28;21264;-68
2023/09/02 06:58:50;;;;;;;11.38;8.52;;;;;;;;;;5048744;28;20643;-68
2023/09/02 07:01:23;;;;;;;14.30;9.35;;;;;;;;;;5049943;28;20081;-68
2023/09/02 07:03:49;;;;;;;13.20;9.43;;;;;;;;;;5048597;28;20894;-68
2023/09/02 07:06:15;;;;;;;12.05;9.18;;;;;;;;;;5048416;28;20029;-68
2023/09/02 07:08:45;;;;;;;11.98;9.15;;;;;;;;;;5049465;28;20681;-68
2023/09/02 07:11:12;;;;;;;14.93;9.32;;;;;;;;;;5050075;28;20107;-67
2023/09/02 07:13:38;;;;;;;12.77;10.35;;;;;;;;;;5049875;28;20058;-67
2023/09/02 07:16:05;;;;;;;14.07;9.65;;;;;;;;;;5049296;28;20056;-67
2023/09/02 07:18:31;;;;;;;13.38;10.40;;;;;;;;;;5048631;28;20040;-67
2023/09/02 07:21:01;;;;;;;20.17;10.10;;;;;;;;;;5049227;28;20037;-68
2023/09/02 07:23:27;;;;;;;12.07;9.25;;;;;;;;;;5048004;28;20036;-68
2023/09/02 07:25:53;;;;;;;14.38;10.30;;;;;;;;;;5048482;28;20032;-67
2023/09/02 07:28:19;;;;;;;12.98;9.52;;;;;;;;;;5049187;28;20241;-68
2023/09/02 07:30:45;;;;;;;14.98;10.45;;;;;;;;;;5048641;28;20040;-67
2023/09/02 07:33:11;;;;;;;17.55;10.00;;;;;;;;;;5049214;28;20051;-67
2023/09/02 07:35:38;;;;;;;13.95;10.57;;;;;;;;;;5048306;28;20046;-68
2023/09/02 07:38:05;;;;;;;14.65;10.27;;;;;;;;;;5049678;28;20074;-68
2023/09/02 07:40:31;;;;;;;14.95;10.45;;;;;;;;;;5048549;28;20028;-68
2023/09/02 07:42:58;;;;;;;13.20;8.80;;;;;;;;;;5047956;28;20043;-68
2023/09/02 07:45:24;;;;;;;14.75;10.45;;;;;;;;;;5049369;28;20032;-67
2023/09/02 07:47:50;;;;;;;13.75;10.05;;;;;;;;;;5049518;28;20043;-67
2023/09/02 07:50:16;;;;;;;14.13;9.50;;;;;;;;;;5049032;28;20035;-68
2023/09/02 07:52:42;;;;;;;13.45;10.00;;;;;;;;;;5047125;28;20036;-68
2023/09/02 07:55:08;;;;;;;14.07;9.80;;;;;;;;;;5049224;28;20121;-68
2023/09/02 07:57:34;;;;;;;13.85;10.07;;;;;;;;;;5049014;28;20039;-67
2023/09/02 08:00:01;;;;;;;14.13;9.68;;;;;;;;;;5048291;28;20032;-68
2023/09/02 08:02:27;;;;;;;13.27;9.57;;;;;;;;;;5047290;28;20121;-67
2023/09/02 08:04:53;;;;;;;14.82;8.90;;;;;;;;;;5046228;28;20185;-67
2023/09/02 08:07:19;;;;;;;14.65;8.98;;;;;;;;;;5047468;28;20043;-68
2023/09/02 08:09:48;;;;;;;13.35;8.10;;;;;;;;;;5048072;28;20032;-68
2023/09/02 08:12:14;;;;;;;11.68;8.02;;;;;;;;;;5047079;28;20915;-67
2023/09/02 08:14:40;;;;;;;12.95;7.40;;;;;;;;;;5047470;28;20064;-68
2023/09/02 08:17:08;;;;;;;13.52;8.65;;;;;;;;;;5047612;28;20147;-68
2023/09/02 08:19:34;;;;;;;15.18;7.63;;;;;;;;;;5048176;28;20474;-68
2023/09/02 08:22:00;;;;;;;12.40;7.43;;;;;;;;;;5047864;28;20116;-68
2023/09/02 08:24:26;;;;;;;10.70;7.32;;;;;;;;;;5047630;28;20039;-68
2023/09/02 08:26:52;;;;;;;14.45;7.43;;;;;;;;;;5048289;28;20557;-68
2023/09/02 08:29:18;;;;;;;12.32;7.78;;;;;;;;;;5045462;28;20975;-62
2023/09/02 08:31:44;;;;;;;10.73;6.70;;;;;;;;;;5047496;28;20475;-63
2023/09/02 08:34:11;;;;;;;13.73;9.32;;;;;;;;;;5048242;28;20804;-63
2023/09/02 08:36:37;;;;;;;10.77;7.00;;;;;;;;;;5046142;28;20085;-63
2023/09/02 08:39:03;;;;;;;10.52;7.00;;;;;;;;;;5047192;28;20032;-63
2023/09/02 08:41:35;;;;;;;11.15;6.55;;;;;;;;;;5046836;28;20028;-63
2023/09/02 08:44:02;;;;;;;16.20;7.28;;;;;;;;;;5045715;28;21439;-64
2023/09/02 08:46:31;;;;;;;12.68;7.00;;;;;;;;;;5045503;28;20035;-63
2023/09/02 08:48:57;;;;;;;12.40;7.15;;;;;;;;;;5044557;28;20160;-63
2023/09/02 08:51:25;;;;;;;9.52;6.43;;;;;;;;;;5045162;28;20036;-63
2023/09/02 08:53:51;;;;;;;11.43;5.75;;;;;;;;;;5045655;28;20406;-63
2023/09/02 08:56:17;;;;;;;10.18;5.88;;;;;;;;;;5045340;28;20043;-63
2023/09/02 08:58:43;;;;;;;13.00;6.68;;;;;;;;;;5044186;28;20047;-63
2023/09/02 09:01:10;;;;;;;13.20;6.93;;;;;;;;;;5046811;28;20044;-63
2023/09/02 09:03:37;;;;;;;11.35;7.40;;;;;;;;;;5046156;28;20028;-63
2023/09/02 09:06:05;;;;;;;9.45;6.25;;;;;;;;;;5044590;28;20039;-63
2023/09/02 09:08:31;;;;;;;9.93;6.70;;;;;;;;;;5062060;28;20033;-63
2023/09/02 09:10:57;;;;;;;10.23;6.88;;;;;;;;;;5046663;28;20041;-63
2023/09/02 09:13:25;;;;;;;12.20;6.50;;;;;;;;;;5046374;28;20039;-63
2023/09/02 09:15:51;;;;;;;11.07;7.05;;;;;;;;;;5045700;28;20083;-63
2023/09/02 09:18:18;;;;;;;11.30;6.55;;;;;;;;;;5044101;28;20064;-63
2023/09/02 09:20:44;;;;;;;13.43;6.47;;;;;;;;;;5045523;28;20163;-69
2023/09/02 09:23:10;;;;;;;11.75;6.75;;;;;;;;;;5046843;28;20620;-68
2023/09/02 09:25:36;;;;;;;10.85;6.72;;;;;;;;;;5046139;28;20043;-68
2023/09/02 09:28:09;;;;;;;10.20;6.90;;;;;;;;;;5046265;28;20039;-69
2023/09/02 09:30:35;;;;;;;13.43;7.70;;;;;;;;;;5062860;28;20040;-68
2023/09/02 09:33:05;;;;;;;14.90;6.72;;;;;;;;;;5047031;28;20042;-69
2023/09/02 09:35:31;;;;;;;9.70;6.68;;;;;;;;;;5046547;28;20028;-69
2023/09/02 09:37:57;;;;;;;11.32;6.95;;;;;;;;;;5046873;28;21851;-68
2023/09/02 09:40:30;;;;;;;14.10;7.32;;;;;;;;;;5045369;28;20032;-69
2023/09/02 09:42:56;;;;;;;15.75;7.40;;;;;;;;;;5046362;28;20024;-68
2023/09/02 09:45:23;;;;;;;10.82;6.97;;;;;;;;;;5045783;28;20028;-69
2023/09/02 09:47:49;;;;;;;10.48;6.85;;;;;;;;;;5046871;28;20036;-68
2023/09/02 09:50:15;;;;;;;11.32;7.60;;;;;;;;;;5047263;28;20086;-68
2023/09/02 09:52:59;;;;;;;11.95;7.80;;;;;;;;;;5046169;28;20176;-68
2023/09/02 09:55:25;;;;;;;9.90;6.93;;;;;;;;;;5047339;28;20067;-68
2023/09/02 09:57:55;;;;;;;9.98;6.15;;;;;;;;;;5045515;28;20167;-69
2023/09/02 10:00:21;;;;;;;12.85;6.80;;;;;;;;;;5046132;28;20036;-69
2023/09/02 10:02:54;;;;;;;9.77;6.90;;;;;;;;;;5046965;28;20020;-69
2023/09/02 10:05:26;;;;;;;9.52;6.32;;;;;;;;;;5046223;28;20121;-68
2023/09/02 10:08:06;;;;;;;11.03;7.00;;;;;;;;;;5042802;28;20125;-68
2023/09/02 10:10:33;;;;;;;12.45;7.22;;;;;;;;;;5043460;28;20122;-69
2023/09/02 10:12:59;;;;;;;15.13;7.35;;;;;;;;;;5044465;28;20042;-69
2023/09/02 10:15:26;;;;;;;12.57;7.45;;;;;;;;;;5044148;28;20032;-68
2023/09/02 10:17:59;;;;;;;12.60;6.57;;;;;;;;;;5044298;28;20047;-69
2023/09/02 10:20:27;;;;;;;23.10;7.68;;;;;;;;;;5044586;28;20107;-69
2023/09/02 10:22:54;;;;;;;10.88;6.35;;;;;;;;;;5044172;28;20657;-70
2023/09/02 10:25:27;;;;;;;11.43;7.05;;;;;;;;;;5046200;28;20150;-69
2023/09/02 10:28:10;;;;;;;9.60;6.35;;;;;;;;;;5045305;28;20042;-70
2023/09/02 10:30:43;;;;;;;9.60;6.43;;;;;;;;;;5050662;28;20119;-71
2023/09/02 10:33:28;;;;;;;13.13;6.80;;;;;;;;;;5050603;28;20034;-70
2023/09/02 10:36:00;;;;;;;9.52;6.30;;;;;;;;;;5050153;28;20135;-71
2023/09/02 10:38:28;;;;;;;9.35;6.13;;;;;;;;;;5050617;28;20028;-71
2023/09/02 10:41:02;;;;;;;12.05;6.38;;;;;;;;;;5049512;28;20033;-70
2023/09/02 10:43:28;;;;;;;10.63;5.47;;;;;;;;;;5049520;28;20028;-70
2023/09/02 10:45:54;;;;;;;9.98;6.13;;;;;;;;;;5051043;28;20063;-71
2023/09/02 10:48:21;;;;;;;8.10;5.40;;;;;;;;;;5050532;28;20036;-71
2023/09/02 10:50:47;;;;;;;7.70;5.13;;;;;;;;;;5045226;28;20695;-71
2023/09/02 10:53:13;;;;;;;10.52;5.93;;;;;;;;;;5045374;28;20033;-71
2023/09/02 10:55:59;;;;;;;8.75;5.63;;;;;;;;;;5046887;28;20199;-71
2023/09/02 10:58:25;;;;;;;10.73;5.07;;;;;;;;;;5046905;28;20025;-70
2023/09/02 11:00:52;;;;;;;9.05;5.32;;;;;;;;;;5048211;28;20143;-70
2023/09/02 11:03:42;;;;;;;8.93;5.32;;;;;;;;;;5046593;28;20025;-71
2023/09/02 11:06:11;;;;;;;11.00;5.53;;;;;;;;;;5046220;28;20063;-70
2023/09/02 11:08:47;;;;;;;9.82;5.00;;;;;;;;;;5047999;28;20030;-70
2023/09/02 11:11:13;;;;;;;8.20;5.20;;;;;;;;;;5048927;28;20721;-70
2023/09/02 11:13:58;;;;;;;10.95;5.40;;;;;;;;;;5049459;28;20779;-70
2023/09/02 11:16:24;;;;;;;7.57;5.15;;;;;;;;;;5047868;28;20167;-70
2023/09/02 11:18:50;;;;;;;9.23;5.32;;;;;;;;;;5044586;28;20040;-71
2023/09/02 11:21:35;;;;;;;8.57;4.68;;;;;;;;;;5046217;28;20086;-70
2023/09/02 11:24:20;;;;;;;8.98;5.07;;;;;;;;;;5049708;28;20899;-71
2023/09/02 11:26:53;;;;;;;6.88;4.55;;;;;;;;;;5047220;28;20107;-71
2023/09/02 11:29:29;;;;;;;10.13;4.55;;;;;;;;;;5045178;28;20122;-70
2023/09/02 11:31:56;;;;;;;7.00;3.78;;;;;;;;;;5047447;28;20032;-71
2023/09/02 11:34:26;;;;;;;8.50;3.85;;;;;;;;;;5048585;28;20032;-71
2023/09/02 11:36:53;;;;;;;9.32;3.80;;;;;;;;;;5045331;28;20036;-71
2023/09/02 11:39:19;;;;;;;8.15;4.07;;;;;;;;;;5047403;28;20205;-71
2023/09/02 11:41:45;;;;;;;8.48;3.45;;;;;;;;;;5047140;28;21012;-70
2023/09/02 11:44:12;;;;;;;8.25;3.45;;;;;;;;;;5049357;28;20024;-70
2023/09/02 11:46:39;;;;;;;7.47;3.10;;;;;;;;;;5048990;28;20024;-71
2023/09/02 11:49:11;;;;;;;5.88;2.95;;;;;;;;;;5045139;28;20036;-71
2023/09/02 11:51:38;;;;;;;7.15;3.65;;;;;;;;;;5048156;28;20825;-71
2023/09/02 11:54:04;;;;;;;8.85;3.05;;;;;;;;;;5047411;28;21380;-70
2023/09/02 11:56:30;;;;;;;6.13;2.95;;;;;;;;;;5053956;28;20041;-71
2023/09/02 11:58:56;;;;;;;6.57;2.72;;;;;;;;;;5054693;28;20143;-70
2023/09/02 12:01:22;;;;;;;7.15;3.45;;;;;;;;;;5054059;28;20032;-71
2023/09/02 12:03:48;;;;;;;5.90;3.17;;;;;;;;;;5054168;28;20020;-70
2023/09/02 12:06:14;;;;;;;6.47;3.22;;;;;;;;;;5054446;28;20483;-70
2023/09/02 12:08:40;;;;;;;5.70;2.40;;;;;;;;;;5053121;28;20048;-70
2023/09/02 12:11:06;;;;;;;6.10;3.30;;;;;;;;;;5054727;28;20041;-70
2023/09/02 12:13:33;;;;;;;7.93;3.42;;;;;;;;;;5049704;28;20169;-70
2023/09/02 12:15:59;;;;;;;9.18;3.60;;;;;;;;;;5052089;28;20047;-71
2023/09/02 12:18:25;;;;;;;6.88;2.58;;;;;;;;;;5054603;28;20040;-71
2023/09/02 12:20:52;;;;;;;5.85;2.80;;;;;;;;;;5053997;28;20205;-70
2023/09/02 12:23:18;;;;;;;8.43;2.90;;;;;;;;;;5054309;28;20043;-71
2023/09/02 12:26:01;;;;;;;5.70;2.05;;;;;;;;;;5054174;28;20063;-71
2023/09/02 12:28:29;;;;;;;8.30;2.20;;;;;;;;;;5054944;28;20051;-71
2023/09/02 12:30:56;;;;;;;6.35;2.33;;;;;;;;;;5053539;28;20028;-71
2023/09/02 12:33:22;;;;;;;5.00;1.85;;;;;;;;;;5054665;28;20020;-71
2023/09/02 12:35:51;;;;;;;12.10;4.95;;;;;;;;;;5051635;28;20122;-71
2023/09/02 12:38:20;;;;;;;12.48;3.80;;;;;;;;;;5054396;28;20151;-64
2023/09/02 12:40:56;;;;;;;9.15;3.35;;;;;;;;;;5055276;28;20028;-64
2023/09/02 12:43:27;;;;;;;7.60;2.35;;;;;;;;;;5054433;28;21007;-64
2023/09/02 12:45:53;;;;;;;6.10;2.33;;;;;;;;;;5054631;28;20453;-63
2023/09/02 12:48:19;;;;;;;6.45;2.42;;;;;;;;;;5054620;28;20028;-64
2023/09/02 12:50:46;;;;;;;6.57;2.60;;;;;;;;;;5052250;28;20040;-64
2023/09/02 12:53:13;;;;;;;9.35;3.00;;;;;;;;;;5053235;28;20069;-64
2023/09/02 12:55:40;;;;;;;5.68;2.00;;;;;;;;;;5054353;28;21815;-63
2023/09/02 12:58:07;;;;;;;6.00;2.33;;;;;;;;;;5053833;28;20125;-63
2023/09/02 13:00:33;;;;;;;5.65;1.80;;;;;;;;;;5054182;28;20197;-63
2023/09/02 13:02:59;;;;;;;4.72;1.92;;;;;;;;;;5051279;28;20035;-63
2023/09/02 13:05:25;;;;;;;4.82;1.83;;;;;;;;;;5052703;28;20070;-63
2023/09/02 13:07:53;;;;;;;7.50;2.63;;;;;;;;;;5052024;28;20463;-63
2023/09/02 13:10:19;;;;;;;7.18;2.42;;;;;;;;;;5053780;28;20023;-63
2023/09/02 13:12:46;;;;;;;4.50;2.10;;;;;;;;;;5052307;28;20155;-63
2023/09/02 13:15:13;;;;;;;4.40;2.40;;;;;;;;;;5054017;28;20035;-63
2023/09/02 13:17:39;;;;;;;5.63;2.20;;;;;;;;;;5053014;28;20052;-63
2023/09/02 13:20:06;;;;;;;4.47;2.17;;;;;;;;;;5053931;28;20040;-63
2023/09/02 13:22:38;;;;;;;7.47;2.03;;;;;;;;;;5053592;28;20032;-63
2023/09/02 13:25:04;;;;;;;5.68;1.80;;;;;;;;;;5054292;28;20032;-63
2023/09/02 13:27:31;;;;;;;4.75;2.30;;;;;;;;;;5053648;28;20144;-63
2023/09/02 13:29:57;;;;;;;5.85;2.33;;;;;;;;;;5054641;28;20039;-63
2023/09/02 13:32:24;;;;;;;4.07;1.80;;;;;;;;;;5053980;28;20073;-63
2023/09/02 13:34:52;;;;;;;4.25;1.90;;;;;;;;;;5054123;28;20024;-63
2023/09/02 13:37:27;;;;;;;5.10;1.88;;;;;;;;;;5053801;28;20035;-63
2023/09/02 13:39:54;;;;;;;4.65;1.90;;;;;;;;;;5053572;28;20032;-63
2023/09/02 13:42:20;;;;;;;4.05;1.60;;;;;;;;;;5052836;28;20024;-63
2023/09/02 13:44:46;;;;;;;7.28;2.00;;;;;;;;;;5052603;28;20027;-63
2023/09/02 13:47:14;;;;;;;5.95;2.13;;;;;;;;;;5053155;28;20034;-63
2023/09/02 13:49:41;;;;;;;4.47;2.03;;;;;;;;;;5053574;28;20032;-63
2023/09/02 13:52:09;;;;;;;4.55;1.70;;;;;;;;;;5052923;28;20032;-63
2023/09/02 13:54:35;;;;;;;4.68;1.90;;;;;;;;;;5049502;28;20023;-63
2023/09/02 13:57:01;;;;;;;5.03;1.65;;;;;;;;;;5050894;28;21185;-63
2023/09/02 13:59:27;;;;;;;4.43;1.60;;;;;;;;;;5051552;28;20064;-63
2023/09/02 14:01:54;;;;;;;3.08;1.63;;;;;;;;;;5049884;28;20120;-63
2023/09/02 14:04:20;;;;;;;3.75;1.40;;;;;;;;;;5054369;28;20154;-64
2023/09/02 14:06:46;;;;;;;3.78;1.48;;;;;;;;;;5055274;28;20036;-63
2023/09/02 14:09:22;;;;;;;4.15;1.38;;;;;;;;;;5055383;28;20396;-63
2023/09/02 14:11:52;;;;;;;3.88;1.95;;;;;;;;;;5057937;28;20028;-63
2023/09/02 14:14:21;;;;;;;3.42;1.30;;;;;;;;;;5055636;28;20577;-63
2023/09/02 14:16:48;;;;;;;3.00;1.40;;;;;;;;;;5058208;28;20063;-63
2023/09/02 14:19:15;;;;;;;4.63;1.52;;;;;;;;;;5056267;28;20039;-63
2023/09/02 14:21:41;;;;;;;5.38;1.90;;;;;;;;;;5056894;28;20079;-63
2023/09/02 14:24:07;;;;;;;4.40;1.40;;;;;;;;;;5056203;28;20729;-63
2023/09/02 14:26:33;;;;;;;3.92;1.52;;;;;;;;;;5057446;28;20036;-63
2023/09/02 14:28:59;;;;;;;3.10;1.50;;;;;;;;;;5056833;28;22049;-63
2023/09/02 14:31:25;;;;;;;7.32;2.30;;;;;;;;;;5056446;28;20044;-63
2023/09/02 14:33:52;;;;;;;6.53;1.35;;;;;;;;;;5056848;28;20040;-63
2023/09/02 14:36:18;;;;;;;3.22;1.35;;;;;;;;;;5056464;28;20676;-63
2023/09/02 14:38:44;;;;;;;3.47;1.17;;;;;;;;;;5056118;28;20028;-63
2023/09/02 14:41:11;;;;;;;4.22;1.40;;;;;;;;;;5056743;28;20077;-63